sensor_id;sensor_type;location;lat;lon;timestamp;pressure;altitude;pressure_sealevel;temperature;humidity
12209;BME280;6167;43.080;25.634;2022-10-26T00:00:41;99889.28;;;17.92;100.00
12209;BME280;6167;43.080;25.634;2022-10-26T00:03:08;99893.38;;;17.84;100.00
12209;BME280;6167;43.080;25.634;2022-10-26T00:05:37;99900.09;;;17.90;100.00
12209;BME280;6167;43.080;25.634;2022-10-26T00:08:04;99909.72;;;17.93;100.00
12209;BME280;6167;43.080;25.634;2022-10-26T00:10:33;99903.13;;;17.85;100.00
12209;BME280;6167;43.080;25.634;2022-10-26T00:13:11;99909.53;;;17.96;100.00
12209;BME280;6167;43.080;25.634;2022-10-26T00:15:39;99910.78;;;17.90;100.00
12209;BME280;6167;43.080;25.634;2022-10-26T00:18:07;99910.19;;;17.87;100.00
12209;BME280;6167;43.080;25.634;2022-10-26T00:20:36;99879.03;;;17.73;100.00
12209;BME280;6167;43.080;25.634;2022-10-26T00:23:03;99887.34;;;17.68;100.00
12209;BME280;6167;43.080;25.634;2022-10-26T00:25:29;99882.94;;;17.55;100.00
12209;BME280;6167;43.080;25.634;2022-10-26T00:27:56;99884.09;;;17.38;100.00
12209;BME280;6167;43.080;25.634;2022-10-26T00:30:23;99897.56;;;17.36;100.00
12209;BME280;6167;43.080;25.634;2022-10-26T00:32:51;99901.19;;;17.35;100.00
12209;BME280;6167;43.080;25.634;2022-10-26T00:35:17;99903.66;;;17.38;100.00
12209;BME280;6167;43.080;25.634;2022-10-26T00:37:46;99903.00;;;17.22;100.00
12209;BME280;6167;43.080;25.634;2022-10-26T00:40:13;99900.13;;;17.38;100.00
12209;BME280;6167;43.080;25.634;2022-10-26T00:42:39;99911.00;;;17.22;100.00
12209;BME280;6167;43.080;25.634;2022-10-26T00:45:18;99909.50;;;17.31;100.00
12209;BME280;6167;43.080;25.634;2022-10-26T00:47:47;99915.81;;;17.30;100.00
12209;BME280;6167;43.080;25.634;2022-10-26T00:50:19;99916.00;;;17.27;100.00
12209;BME280;6167;43.080;25.634;2022-10-26T00:52:52;99918.66;;;17.14;100.00
12209;BME280;6167;43.080;25.634;2022-10-26T00:55:23;99910.25;;;17.20;100.00
12209;BME280;6167;43.080;25.634;2022-10-26T00:57:53;99907.13;;;17.13;100.00
12209;BME280;6167;43.080;25.634;2022-10-26T01:00:21;99912.31;;;17.02;100.00
12209;BME280;6167;43.080;25.634;2022-10-26T01:02:49;99911.00;;;16.95;100.00
12209;BME280;6167;43.080;25.634;2022-10-26T01:05:18;99904.44;;;16.87;100.00
12209;BME280;6167;43.080;25.634;2022-10-26T01:07:46;99909.25;;;16.81;100.00
12209;BME280;6167;43.080;25.634;2022-10-26T01:10:15;99913.47;;;16.71;100.00
12209;BME280;6167;43.080;25.634;2022-10-26T01:12:43;99910.59;;;16.74;100.00
12209;BME280;6167;43.080;25.634;2022-10-26T01:15:10;99904.78;;;16.68;100.00
12209;BME280;6167;43.080;25.634;2022-10-26T01:17:53;99907.25;;;16.71;100.00
12209;BME280;6167;43.080;25.634;2022-10-26T01:23:35;99904.19;;;16.63;100.00
12209;BME280;6167;43.080;25.634;2022-10-26T01:26:36;99909.00;;;16.58;100.00
12209;BME280;6167;43.080;25.634;2022-10-26T01:29:42;99912.59;;;16.57;100.00
12209;BME280;6167;43.080;25.634;2022-10-26T01:32:20;99922.22;;;16.59;100.00
12209;BME280;6167;43.080;25.634;2022-10-26T01:34:55;99925.19;;;16.55;100.00
12209;BME280;6167;43.080;25.634;2022-10-26T01:37:29;99926.63;;;16.46;100.00
12209;BME280;6167;43.080;25.634;2022-10-26T01:40:05;99926.91;;;16.56;100.00
12209;BME280;6167;43.080;25.634;2022-10-26T01:42:36;99931.00;;;16.61;100.00
12209;BME280;6167;43.080;25.634;2022-10-26T01:45:09;99929.88;;;16.51;100.00
12209;BME280;6167;43.080;25.634;2022-10-26T01:47:40;99934.94;;;16.41;100.00
12209;BME280;6167;43.080;25.634;2022-10-26T01:50:09;99930.75;;;16.37;100.00
12209;BME280;6167;43.080;25.634;2022-10-26T01:52:37;99936.47;;;16.31;100.00
12209;BME280;6167;43.080;25.634;2022-10-26T01:55:06;99935.31;;;16.35;100.00
12209;BME280;6167;43.080;25.634;2022-10-26T01:57:59;99934.66;;;16.32;100.00
12209;BME280;6167;43.080;25.634;2022-10-26T02:00:29;99939.41;;;16.27;100.00
12209;BME280;6167;43.080;25.634;2022-10-26T02:03:07;99944.63;;;16.42;100.00
12209;BME280;6167;43.080;25.634;2022-10-26T02:05:47;99943.22;;;16.51;100.00
12209;BME280;6167;43.080;25.634;2022-10-26T02:08:39;99938.81;;;16.50;100.00
12209;BME280;6167;43.080;25.634;2022-10-26T02:11:16;99942.81;;;16.43;100.00
12209;BME280;6167;43.080;25.634;2022-10-26T02:13:53;99952.63;;;16.42;100.00
12209;BME280;6167;43.080;25.634;2022-10-26T02:16:29;99941.03;;;16.29;100.00
12209;BME280;6167;43.080;25.634;2022-10-26T02:19:04;99955.22;;;16.30;100.00
12209;BME280;6167;43.080;25.634;2022-10-26T02:21:36;99955.25;;;16.15;100.00
12209;BME280;6167;43.080;25.634;2022-10-26T02:24:06;99951.03;;;16.11;100.00
12209;BME280;6167;43.080;25.634;2022-10-26T02:26:35;99957.03;;;16.15;100.00
12209;BME280;6167;43.080;25.634;2022-10-26T02:29:06;99958.09;;;15.98;100.00
12209;BME280;6167;43.080;25.634;2022-10-26T02:31:35;99955.97;;;15.89;100.00
12209;BME280;6167;43.080;25.634;2022-10-26T02:34:07;99937.84;;;15.80;100.00
12209;BME280;6167;43.080;25.634;2022-10-26T02:36:41;99918.66;;;15.59;100.00
12209;BME280;6167;43.080;25.634;2022-10-26T02:39:10;99945.66;;;15.69;100.00
12209;BME280;6167;43.080;25.634;2022-10-26T02:41:39;99949.84;;;15.73;100.00
12209;BME280;6167;43.080;25.634;2022-10-26T02:44:11;99950.97;;;15.69;100.00
12209;BME280;6167;43.080;25.634;2022-10-26T02:46:41;99946.22;;;15.74;100.00
12209;BME280;6167;43.080;25.634;2022-10-26T02:49:10;99939.44;;;15.68;100.00
12209;BME280;6167;43.080;25.634;2022-10-26T02:51:39;99955.94;;;15.75;100.00
12209;BME280;6167;43.080;25.634;2022-10-26T02:54:14;99949.06;;;15.71;100.00
12209;BME280;6167;43.080;25.634;2022-10-26T02:56:47;99960.41;;;15.74;100.00
12209;BME280;6167;43.080;25.634;2022-10-26T02:59:18;99966.78;;;15.72;100.00
12209;BME280;6167;43.080;25.634;2022-10-26T03:01:46;99965.06;;;15.71;100.00
12209;BME280;6167;43.080;25.634;2022-10-26T03:04:15;99966.41;;;15.48;100.00
12209;BME280;6167;43.080;25.634;2022-10-26T03:06:51;99972.44;;;15.36;100.00
12209;BME280;6167;43.080;25.634;2022-10-26T03:09:18;99980.25;;;15.39;100.00
12209;BME280;6167;43.080;25.634;2022-10-26T03:11:45;99986.44;;;15.39;100.00
12209;BME280;6167;43.080;25.634;2022-10-26T03:14:13;99985.09;;;15.32;100.00
12209;BME280;6167;43.080;25.634;2022-10-26T03:16:40;99981.66;;;15.30;100.00
12209;BME280;6167;43.080;25.634;2022-10-26T03:19:07;99990.94;;;15.23;100.00
12209;BME280;6167;43.080;25.634;2022-10-26T03:21:35;99999.38;;;15.16;100.00
12209;BME280;6167;43.080;25.634;2022-10-26T03:24:02;99978.22;;;14.97;100.00
12209;BME280;6167;43.080;25.634;2022-10-26T03:26:29;100003.41;;;14.75;100.00
12209;BME280;6167;43.080;25.634;2022-10-26T03:28:56;99996.63;;;14.70;100.00
12209;BME280;6167;43.080;25.634;2022-10-26T03:31:23;99998.19;;;14.74;100.00
12209;BME280;6167;43.080;25.634;2022-10-26T03:33:50;99988.47;;;14.73;100.00
12209;BME280;6167;43.080;25.634;2022-10-26T03:36:17;99998.59;;;14.66;100.00
12209;BME280;6167;43.080;25.634;2022-10-26T03:38:45;100000.63;;;14.61;100.00
12209;BME280;6167;43.080;25.634;2022-10-26T03:41:12;100001.25;;;14.66;100.00
12209;BME280;6167;43.080;25.634;2022-10-26T03:43:39;100002.03;;;14.68;100.00
12209;BME280;6167;43.080;25.634;2022-10-26T03:46:06;100008.75;;;14.75;100.00
12209;BME280;6167;43.080;25.634;2022-10-26T03:48:33;100004.53;;;14.71;100.00
12209;BME280;6167;43.080;25.634;2022-10-26T03:51:00;100002.69;;;14.39;100.00
12209;BME280;6167;43.080;25.634;2022-10-26T03:53:27;100019.41;;;14.42;100.00
12209;BME280;6167;43.080;25.634;2022-10-26T03:55:55;100006.00;;;14.44;100.00
12209;BME280;6167;43.080;25.634;2022-10-26T03:58:22;100024.41;;;14.14;100.00
12209;BME280;6167;43.080;25.634;2022-10-26T04:00:49;100021.38;;;14.04;100.00
12209;BME280;6167;43.080;25.634;2022-10-26T04:03:16;100008.03;;;13.89;100.00
12209;BME280;6167;43.080;25.634;2022-10-26T04:05:43;100010.84;;;14.03;100.00
12209;BME280;6167;43.080;25.634;2022-10-26T04:08:10;100020.38;;;13.72;100.00
12209;BME280;6167;43.080;25.634;2022-10-26T04:10:37;100019.75;;;13.50;100.00
12209;BME280;6167;43.080;25.634;2022-10-26T04:13:08;100030.69;;;13.61;100.00
12209;BME280;6167;43.080;25.634;2022-10-26T04:15:35;100012.66;;;13.51;100.00
12209;BME280;6167;43.080;25.634;2022-10-26T04:18:02;100033.41;;;13.43;100.00
12209;BME280;6167;43.080;25.634;2022-10-26T04:20:30;100033.47;;;13.41;100.00
12209;BME280;6167;43.080;25.634;2022-10-26T04:22:58;100026.56;;;13.20;100.00
12209;BME280;6167;43.080;25.634;2022-10-26T04:25:27;100026.19;;;13.08;100.00
12209;BME280;6167;43.080;25.634;2022-10-26T04:27:54;100044.06;;;13.05;100.00
12209;BME280;6167;43.080;25.634;2022-10-26T04:30:22;100045.63;;;13.09;100.00
12209;BME280;6167;43.080;25.634;2022-10-26T04:32:49;100052.16;;;13.02;100.00
12209;BME280;6167;43.080;25.634;2022-10-26T04:35:16;100058.56;;;13.17;100.00
12209;BME280;6167;43.080;25.634;2022-10-26T04:37:43;100059.53;;;13.14;100.00
12209;BME280;6167;43.080;25.634;2022-10-26T04:40:11;100054.59;;;12.88;100.00
12209;BME280;6167;43.080;25.634;2022-10-26T04:42:42;100058.97;;;13.07;100.00
12209;BME280;6167;43.080;25.634;2022-10-26T04:45:10;100046.72;;;13.05;100.00
12209;BME280;6167;43.080;25.634;2022-10-26T04:47:39;100066.50;;;12.79;100.00
12209;BME280;6167;43.080;25.634;2022-10-26T04:50:07;100063.84;;;12.98;100.00
12209;BME280;6167;43.080;25.634;2022-10-26T04:52:35;100065.22;;;12.88;100.00
12209;BME280;6167;43.080;25.634;2022-10-26T04:55:02;100063.63;;;12.84;100.00
12209;BME280;6167;43.080;25.634;2022-10-26T04:57:31;100066.84;;;12.90;100.00
12209;BME280;6167;43.080;25.634;2022-10-26T04:59:58;100089.38;;;12.82;100.00
12209;BME280;6167;43.080;25.634;2022-10-26T05:02:25;100085.59;;;12.87;100.00
12209;BME280;6167;43.080;25.634;2022-10-26T05:04:54;100094.84;;;12.97;100.00
12209;BME280;6167;43.080;25.634;2022-10-26T05:07:21;100087.00;;;12.94;100.00
12209;BME280;6167;43.080;25.634;2022-10-26T05:09:48;100096.03;;;12.90;100.00
12209;BME280;6167;43.080;25.634;2022-10-26T05:12:14;100076.03;;;12.83;100.00
12209;BME280;6167;43.080;25.634;2022-10-26T05:14:43;100086.88;;;13.35;100.00
12209;BME280;6167;43.080;25.634;2022-10-26T05:17:10;100093.31;;;13.84;100.00
12209;BME280;6167;43.080;25.634;2022-10-26T05:19:37;100097.00;;;14.51;100.00
12209;BME280;6167;43.080;25.634;2022-10-26T05:22:05;100083.22;;;15.24;100.00
12209;BME280;6167;43.080;25.634;2022-10-26T05:24:32;100074.75;;;15.95;100.00
12209;BME280;6167;43.080;25.634;2022-10-26T05:26:59;100068.28;;;16.57;100.00
12209;BME280;6167;43.080;25.634;2022-10-26T05:29:26;100077.69;;;17.34;100.00
12209;BME280;6167;43.080;25.634;2022-10-26T05:31:53;100072.63;;;18.10;100.00
12209;BME280;6167;43.080;25.634;2022-10-26T05:34:20;100081.59;;;18.86;100.00
12209;BME280;6167;43.080;25.634;2022-10-26T05:36:48;100061.06;;;19.47;100.00
12209;BME280;6167;43.080;25.634;2022-10-26T05:39:20;100082.81;;;20.03;100.00
12209;BME280;6167;43.080;25.634;2022-10-26T05:41:47;100081.25;;;20.47;100.00
12209;BME280;6167;43.080;25.634;2022-10-26T05:44:14;100080.44;;;20.80;99.53
12209;BME280;6167;43.080;25.634;2022-10-26T05:46:41;100082.03;;;21.05;97.19
12209;BME280;6167;43.080;25.634;2022-10-26T05:49:08;100070.44;;;21.26;94.03
12209;BME280;6167;43.080;25.634;2022-10-26T05:51:35;100084.44;;;21.52;93.65
12209;BME280;6167;43.080;25.634;2022-10-26T05:54:04;100095.41;;;21.72;89.44
12209;BME280;6167;43.080;25.634;2022-10-26T05:56:35;100090.78;;;21.94;90.95
12209;BME280;6167;43.080;25.634;2022-10-26T05:59:04;100094.28;;;22.38;83.03
12209;BME280;6167;43.080;25.634;2022-10-26T06:01:47;100085.03;;;23.03;76.89
12209;BME280;6167;43.080;25.634;2022-10-26T06:04:28;100093.94;;;23.34;70.06
12209;BME280;6167;43.080;25.634;2022-10-26T06:06:56;100091.19;;;23.74;66.38
12209;BME280;6167;43.080;25.634;2022-10-26T06:09:24;100086.41;;;24.26;64.03
12209;BME280;6167;43.080;25.634;2022-10-26T06:11:53;100082.88;;;24.82;60.28
12209;BME280;6167;43.080;25.634;2022-10-26T06:14:22;100069.44;;;25.09;56.73
12209;BME280;6167;43.080;25.634;2022-10-26T06:17:05;100080.91;;;25.48;55.23
12209;BME280;6167;43.080;25.634;2022-10-26T06:19:50;100091.56;;;25.22;55.17
12209;BME280;6167;43.080;25.634;2022-10-26T06:22:30;100084.56;;;24.92;56.25
12209;BME280;6167;43.080;25.634;2022-10-26T06:25:04;100097.25;;;24.82;56.79
12209;BME280;6167;43.080;25.634;2022-10-26T06:27:43;100101.22;;;24.88;56.46
12209;BME280;6167;43.080;25.634;2022-10-26T06:30:13;100098.97;;;24.74;57.36
12209;BME280;6167;43.080;25.634;2022-10-26T06:32:43;100096.25;;;24.74;58.52
12209;BME280;6167;43.080;25.634;2022-10-26T06:35:19;100102.94;;;24.89;57.91
12209;BME280;6167;43.080;25.634;2022-10-26T06:37:51;100094.38;;;25.03;56.80
12209;BME280;6167;43.080;25.634;2022-10-26T06:40:20;100093.41;;;25.22;55.72
12209;BME280;6167;43.080;25.634;2022-10-26T06:42:50;100094.63;;;24.34;57.11
12209;BME280;6167;43.080;25.634;2022-10-26T06:45:19;100099.50;;;24.96;59.07
12209;BME280;6167;43.080;25.634;2022-10-26T06:47:51;100096.44;;;25.91;54.33
12209;BME280;6167;43.080;25.634;2022-10-26T06:50:30;100091.31;;;26.42;52.91
12209;BME280;6167;43.080;25.634;2022-10-26T06:53:05;100087.16;;;26.99;50.16
12209;BME280;6167;43.080;25.634;2022-10-26T06:55:39;100106.09;;;27.59;48.21
12209;BME280;6167;43.080;25.634;2022-10-26T06:58:11;100107.91;;;28.00;46.33
12209;BME280;6167;43.080;25.634;2022-10-26T07:00:40;100107.88;;;28.09;46.08
12209;BME280;6167;43.080;25.634;2022-10-26T07:03:08;100107.44;;;28.21;45.40
12209;BME280;6167;43.080;25.634;2022-10-26T07:05:35;100106.41;;;28.38;44.60
12209;BME280;6167;43.080;25.634;2022-10-26T07:08:03;100112.53;;;28.57;43.69
12209;BME280;6167;43.080;25.634;2022-10-26T07:10:32;100106.91;;;28.58;43.04
12209;BME280;6167;43.080;25.634;2022-10-26T07:13:03;100091.44;;;28.59;43.48
12209;BME280;6167;43.080;25.634;2022-10-26T07:15:32;100104.03;;;28.52;43.40
12209;BME280;6167;43.080;25.634;2022-10-26T07:18:00;100102.31;;;28.59;42.65
12209;BME280;6167;43.080;25.634;2022-10-26T07:20:30;100097.56;;;28.53;43.39
12209;BME280;6167;43.080;25.634;2022-10-26T07:22:58;100098.75;;;28.58;42.37
12209;BME280;6167;43.080;25.634;2022-10-26T07:25:26;100085.38;;;26.90;45.26
12209;BME280;6167;43.080;25.634;2022-10-26T07:27:56;100075.63;;;27.39;44.91
12209;BME280;6167;43.080;25.634;2022-10-26T07:30:24;100099.16;;;27.22;45.25
12209;BME280;6167;43.080;25.634;2022-10-26T07:32:59;100083.91;;;27.80;44.08
12209;BME280;6167;43.080;25.634;2022-10-26T07:35:26;100085.75;;;27.71;44.94
12209;BME280;6167;43.080;25.634;2022-10-26T07:37:56;100072.22;;;27.95;43.75
12209;BME280;6167;43.080;25.634;2022-10-26T07:40:24;100083.28;;;28.02;44.12
12209;BME280;6167;43.080;25.634;2022-10-26T07:42:51;100099.34;;;27.63;43.51
12209;BME280;6167;43.080;25.634;2022-10-26T07:45:18;100091.75;;;28.07;43.35
12209;BME280;6167;43.080;25.634;2022-10-26T07:47:45;100099.34;;;27.63;44.15
12209;BME280;6167;43.080;25.634;2022-10-26T07:50:14;100102.09;;;27.45;44.54
12209;BME280;6167;43.080;25.634;2022-10-26T07:52:41;100091.22;;;27.79;44.22
12209;BME280;6167;43.080;25.634;2022-10-26T07:55:09;100103.47;;;27.49;44.58
12209;BME280;6167;43.080;25.634;2022-10-26T07:57:36;100094.28;;;27.84;43.66
12209;BME280;6167;43.080;25.634;2022-10-26T08:00:05;100089.06;;;28.48;43.00
12209;BME280;6167;43.080;25.634;2022-10-26T08:02:33;100109.28;;;27.54;45.12
12209;BME280;6167;43.080;25.634;2022-10-26T08:05:00;100102.28;;;27.94;44.12
12209;BME280;6167;43.080;25.634;2022-10-26T08:07:28;100109.31;;;26.68;45.85
12209;BME280;6167;43.080;25.634;2022-10-26T08:09:55;100110.78;;;26.81;46.51
12209;BME280;6167;43.080;25.634;2022-10-26T08:12:22;100111.13;;;27.12;45.58
12209;BME280;6167;43.080;25.634;2022-10-26T08:14:49;100106.19;;;26.02;47.71
12209;BME280;6167;43.080;25.634;2022-10-26T08:17:16;100105.56;;;26.08;48.47
12209;BME280;6167;43.080;25.634;2022-10-26T08:19:46;100090.63;;;26.04;49.15
12209;BME280;6167;43.080;25.634;2022-10-26T08:22:13;100097.66;;;25.34;50.51
12209;BME280;6167;43.080;25.634;2022-10-26T08:24:42;100091.47;;;26.05;49.25
12209;BME280;6167;43.080;25.634;2022-10-26T08:27:11;100108.91;;;24.83;51.55
12209;BME280;6167;43.080;25.634;2022-10-26T08:29:38;100097.81;;;25.32;52.09
12209;BME280;6167;43.080;25.634;2022-10-26T08:32:05;100095.19;;;26.03;49.25
12209;BME280;6167;43.080;25.634;2022-10-26T08:34:32;100096.84;;;26.32;47.58
12209;BME280;6167;43.080;25.634;2022-10-26T08:36:59;100099.63;;;26.92;46.98
12209;BME280;6167;43.080;25.634;2022-10-26T08:39:26;100092.16;;;26.60;46.64
12209;BME280;6167;43.080;25.634;2022-10-26T08:42:01;100102.47;;;25.67;47.33
12209;BME280;6167;43.080;25.634;2022-10-26T08:44:33;100104.03;;;25.06;49.37
12209;BME280;6167;43.080;25.634;2022-10-26T08:47:06;100101.38;;;25.23;49.03
12209;BME280;6167;43.080;25.634;2022-10-26T08:49:40;100100.44;;;25.15;49.89
12209;BME280;6167;43.080;25.634;2022-10-26T08:52:13;100104.03;;;25.60;49.64
12209;BME280;6167;43.080;25.634;2022-10-26T08:54:47;100100.09;;;26.18;47.78
12209;BME280;6167;43.080;25.634;2022-10-26T08:57:21;100093.56;;;26.46;46.67
12209;BME280;6167;43.080;25.634;2022-10-26T08:59:56;100107.72;;;26.84;46.96
12209;BME280;6167;43.080;25.634;2022-10-26T09:02:24;100099.94;;;25.56;47.93
12209;BME280;6167;43.080;25.634;2022-10-26T09:04:51;100103.97;;;26.33;47.31
12209;BME280;6167;43.080;25.634;2022-10-26T09:07:42;100100.47;;;25.87;47.15
12209;BME280;6167;43.080;25.634;2022-10-26T09:10:38;100088.88;;;26.30;47.18
12209;BME280;6167;43.080;25.634;2022-10-26T09:13:14;100098.38;;;26.78;45.88
12209;BME280;6167;43.080;25.634;2022-10-26T09:15:56;100098.91;;;26.20;47.10
12209;BME280;6167;43.080;25.634;2022-10-26T09:18:36;100104.28;;;25.94;47.36
12209;BME280;6167;43.080;25.634;2022-10-26T09:21:24;100103.63;;;26.54;46.45
12209;BME280;6167;43.080;25.634;2022-10-26T09:24:01;100101.44;;;27.01;45.26
12209;BME280;6167;43.080;25.634;2022-10-26T09:26:35;100101.34;;;27.19;43.88
12209;BME280;6167;43.080;25.634;2022-10-26T09:29:11;100097.09;;;27.24;43.81
12209;BME280;6167;43.080;25.634;2022-10-26T09:31:39;100099.88;;;27.32;43.45
12209;BME280;6167;43.080;25.634;2022-10-26T09:34:11;100097.09;;;27.58;42.99
12209;BME280;6167;43.080;25.634;2022-10-26T09:36:40;100098.31;;;27.64;42.20
12209;BME280;6167;43.080;25.634;2022-10-26T09:39:13;100089.59;;;28.35;40.71
12209;BME280;6167;43.080;25.634;2022-10-26T09:41:46;100091.28;;;28.28;41.64
12209;BME280;6167;43.080;25.634;2022-10-26T09:44:21;100086.81;;;27.86;42.07
12209;BME280;6167;43.080;25.634;2022-10-26T09:46:55;100096.81;;;27.86;41.46
12209;BME280;6167;43.080;25.634;2022-10-26T09:49:28;100083.56;;;27.75;41.12
12209;BME280;6167;43.080;25.634;2022-10-26T09:51:59;100085.66;;;27.38;42.53
12209;BME280;6167;43.080;25.634;2022-10-26T09:54:26;100093.41;;;26.48;44.46
12209;BME280;6167;43.080;25.634;2022-10-26T09:56:55;100084.16;;;26.84;43.84
12209;BME280;6167;43.080;25.634;2022-10-26T09:59:30;100085.97;;;27.35;42.86
12209;BME280;6167;43.080;25.634;2022-10-26T10:01:59;100078.84;;;28.01;41.96
12209;BME280;6167;43.080;25.634;2022-10-26T10:04:28;100078.47;;;27.71;41.96
12209;BME280;6167;43.080;25.634;2022-10-26T10:07:11;100070.97;;;27.57;42.25
12209;BME280;6167;43.080;25.634;2022-10-26T10:09:39;100076.06;;;27.18;42.05
12209;BME280;6167;43.080;25.634;2022-10-26T10:12:17;100079.13;;;27.23;42.88
12209;BME280;6167;43.080;25.634;2022-10-26T10:14:56;100063.00;;;27.64;43.55
12209;BME280;6167;43.080;25.634;2022-10-26T10:17:23;100060.69;;;28.50;42.31
12209;BME280;6167;43.080;25.634;2022-10-26T10:19:51;100059.50;;;29.16;41.75
12209;BME280;6167;43.080;25.634;2022-10-26T10:22:20;100058.91;;;29.37;40.37
12209;BME280;6167;43.080;25.634;2022-10-26T10:24:53;100058.81;;;29.84;38.74
12209;BME280;6167;43.080;25.634;2022-10-26T10:27:22;100052.03;;;29.80;37.64
12209;BME280;6167;43.080;25.634;2022-10-26T10:29:50;100054.59;;;29.12;38.30
12209;BME280;6167;43.080;25.634;2022-10-26T10:32:20;100052.56;;;28.42;39.97
12209;BME280;6167;43.080;25.634;2022-10-26T10:34:48;100049.78;;;29.30;37.95
12209;BME280;6167;43.080;25.634;2022-10-26T10:37:23;100048.53;;;29.40;38.37
12209;BME280;6167;43.080;25.634;2022-10-26T10:39:55;100047.84;;;28.91;40.06
12209;BME280;6167;43.080;25.634;2022-10-26T10:42:26;100048.09;;;28.57;39.23
12209;BME280;6167;43.080;25.634;2022-10-26T10:44:56;100043.31;;;28.84;39.13
12209;BME280;6167;43.080;25.634;2022-10-26T10:47:27;100035.53;;;28.56;39.45
12209;BME280;6167;43.080;25.634;2022-10-26T10:49:57;100045.75;;;28.46;39.06
12209;BME280;6167;43.080;25.634;2022-10-26T10:52:28;100032.31;;;28.36;39.51
12209;BME280;6167;43.080;25.634;2022-10-26T10:55:09;100037.53;;;27.65;39.83
12209;BME280;6167;43.080;25.634;2022-10-26T10:57:51;100031.47;;;27.29;40.70
12209;BME280;6167;43.080;25.634;2022-10-26T11:00:20;100024.84;;;28.38;39.06
12209;BME280;6167;43.080;25.634;2022-10-26T11:03:00;100021.72;;;28.82;38.17
12209;BME280;6167;43.080;25.634;2022-10-26T11:05:40;100026.63;;;28.79;38.08
12209;BME280;6167;43.080;25.634;2022-10-26T11:08:11;100021.75;;;28.58;37.42
12209;BME280;6167;43.080;25.634;2022-10-26T11:10:45;100030.78;;;27.77;38.55
12209;BME280;6167;43.080;25.634;2022-10-26T11:13:19;100033.50;;;28.01;39.41
12209;BME280;6167;43.080;25.634;2022-10-26T11:15:51;100023.63;;;28.65;36.82
12209;BME280;6167;43.080;25.634;2022-10-26T11:18:26;100026.72;;;27.81;38.39
12209;BME280;6167;43.080;25.634;2022-10-26T11:21:01;100019.81;;;27.45;39.57
12209;BME280;6167;43.080;25.634;2022-10-26T11:23:34;100016.41;;;27.34;39.14
12209;BME280;6167;43.080;25.634;2022-10-26T11:26:07;100025.09;;;27.04;39.54
12209;BME280;6167;43.080;25.634;2022-10-26T11:28:39;100027.59;;;27.31;39.36
12209;BME280;6167;43.080;25.634;2022-10-26T11:31:10;100031.81;;;26.92;39.24
12209;BME280;6167;43.080;25.634;2022-10-26T11:33:45;100028.72;;;26.87;39.45
12209;BME280;6167;43.080;25.634;2022-10-26T11:36:16;100017.34;;;27.59;38.57
12209;BME280;6167;43.080;25.634;2022-10-26T11:38:48;100017.22;;;28.01;37.63
12209;BME280;6167;43.080;25.634;2022-10-26T11:41:23;100024.19;;;28.20;38.15
12209;BME280;6167;43.080;25.634;2022-10-26T11:43:55;100019.75;;;28.35;35.73
12209;BME280;6167;43.080;25.634;2022-10-26T11:46:27;100018.72;;;28.45;36.27
12209;BME280;6167;43.080;25.634;2022-10-26T11:49:01;100017.34;;;28.16;36.38
12209;BME280;6167;43.080;25.634;2022-10-26T11:51:37;100020.94;;;27.92;36.49
12209;BME280;6167;43.080;25.634;2022-10-26T11:54:10;100013.78;;;28.16;36.66
12209;BME280;6167;43.080;25.634;2022-10-26T11:56:43;100031.94;;;27.75;37.09
12209;BME280;6167;43.080;25.634;2022-10-26T11:59:17;100018.50;;;26.98;37.03
12209;BME280;6167;43.080;25.634;2022-10-26T12:01:46;100014.41;;;27.02;36.71
12209;BME280;6167;43.080;25.634;2022-10-26T12:04:15;100021.47;;;26.61;38.13
12209;BME280;6167;43.080;25.634;2022-10-26T12:06:44;100012.59;;;27.11;38.03
12209;BME280;6167;43.080;25.634;2022-10-26T12:09:15;100015.50;;;27.84;36.12
12209;BME280;6167;43.080;25.634;2022-10-26T12:11:47;100004.81;;;27.24;36.64
12209;BME280;6167;43.080;25.634;2022-10-26T12:14:22;100017.38;;;27.25;36.79
12209;BME280;6167;43.080;25.634;2022-10-26T12:16:57;100018.19;;;26.84;36.76
12209;BME280;6167;43.080;25.634;2022-10-26T12:19:35;100018.66;;;27.05;37.10
12209;BME280;6167;43.080;25.634;2022-10-26T12:22:08;100012.19;;;27.48;36.19
12209;BME280;6167;43.080;25.634;2022-10-26T12:24:42;100005.81;;;27.90;36.63
12209;BME280;6167;43.080;25.634;2022-10-26T12:27:28;99993.41;;;27.95;35.92
12209;BME280;6167;43.080;25.634;2022-10-26T12:30:21;100016.69;;;27.82;36.11
12209;BME280;6167;43.080;25.634;2022-10-26T12:32:51;100021.84;;;26.66;37.32
12209;BME280;6167;43.080;25.634;2022-10-26T12:35:40;100010.09;;;27.18;36.70
12209;BME280;6167;43.080;25.634;2022-10-26T12:41:18;100001.47;;;27.47;35.96
12209;BME280;6167;43.080;25.634;2022-10-26T12:43:45;100000.84;;;26.94;36.24
12209;BME280;6167;43.080;25.634;2022-10-26T12:46:40;100013.53;;;26.68;36.40
12209;BME280;6167;43.080;25.634;2022-10-26T12:52:19;100006.03;;;27.30;36.63
12209;BME280;6167;43.080;25.634;2022-10-26T12:54:55;100019.25;;;26.57;37.72
12209;BME280;6167;43.080;25.634;2022-10-26T12:57:32;100021.75;;;26.84;37.71
12209;BME280;6167;43.080;25.634;2022-10-26T13:00:11;100014.47;;;26.85;37.80
12209;BME280;6167;43.080;25.634;2022-10-26T13:02:49;100019.91;;;27.19;38.12
12209;BME280;6167;43.080;25.634;2022-10-26T13:08:38;100026.25;;;26.67;38.39
12209;BME280;6167;43.080;25.634;2022-10-26T13:11:12;100036.72;;;26.62;38.04
12209;BME280;6167;43.080;25.634;2022-10-26T13:13:41;100026.63;;;25.85;39.22
12209;BME280;6167;43.080;25.634;2022-10-26T13:16:10;100028.66;;;26.45;38.83
12209;BME280;6167;43.080;25.634;2022-10-26T13:18:41;100029.03;;;26.50;38.91
12209;BME280;6167;43.080;25.634;2022-10-26T13:21:10;100032.00;;;26.21;38.50